createdAt,value
2022-12-03T00:03:29.745Z,37.40
2022-12-03T00:08:31.598Z,38.83
2022-12-03T00:13:33.221Z,37.97
2022-12-03T00:18:34.924Z,35.40
2022-12-03T00:23:41.809Z,38.22
2022-12-03T00:28:44.117Z,37.15
2022-12-03T00:33:45.763Z,39.28
2022-12-03T00:38:47.428Z,41.75
2022-12-03T00:43:49.076Z,39.63
2022-12-03T00:48:50.743Z,37.95
2022-12-03T00:53:52.459Z,40.97
2022-12-03T00:58:54.125Z,46.53
2022-12-03T01:03:55.837Z,41.28
2022-12-03T01:08:57.525Z,42.08
2022-12-03T01:13:59.129Z,40.85
2022-12-03T01:19:00.841Z,41.13
2022-12-03T01:24:02.632Z,37.85
2022-12-03T01:29:04.623Z,34.22
2022-12-03T01:34:06.270Z,37.90
2022-12-03T01:39:08.153Z,35.58
2022-12-03T01:44:17.835Z,38.72
2022-12-03T01:49:22.525Z,40.28
2022-12-03T01:54:32.867Z,39.10
2022-12-03T01:59:37.423Z,42.30
2022-12-03T02:04:39.572Z,37.25
2022-12-03T02:09:41.169Z,40.55
2022-12-03T02:14:42.899Z,37.10
2022-12-03T02:19:44.764Z,36.97
2022-12-03T02:24:54.346Z,41.55
2022-12-03T02:29:56.694Z,39.65
2022-12-03T02:34:58.305Z,36.22
2022-12-03T02:40:06.976Z,36.05
2022-12-03T02:45:13.359Z,36.47
2022-12-03T02:50:17.641Z,37.28
2022-12-03T02:55:19.870Z,39.38
2022-12-03T03:00:23.016Z,42.25
2022-12-03T03:05:25.159Z,38.53
2022-12-03T03:10:27.338Z,42.88
2022-12-03T03:15:28.995Z,35.17
2022-12-03T03:20:30.723Z,42.25
2022-12-03T03:25:32.455Z,38.63
2022-12-03T03:30:37.398Z,38.53
2022-12-03T03:35:54.588Z,40.72
2022-12-03T03:40:56.795Z,38.95
2022-12-03T03:45:58.567Z,36.00
2022-12-03T03:51:00.795Z,34.97
2022-12-03T03:56:02.485Z,40.00
2022-12-03T04:01:04.464Z,33.83
2022-12-03T04:06:06.651Z,31.75
2022-12-03T04:11:26.913Z,38.28
2022-12-03T04:16:28.852Z,31.05
2022-12-03T04:21:49.169Z,33.13
2022-12-03T04:27:09.291Z,30.75
2022-12-03T04:32:30.303Z,31.80
2022-12-03T04:37:31.913Z,32.85
2022-12-03T04:42:33.528Z,35.35
2022-12-03T04:47:39.736Z,34.42
2022-12-03T04:52:41.749Z,36.72
2022-12-03T04:57:43.414Z,32.60
2022-12-03T05:02:45.137Z,36.22
2022-12-03T05:07:47.184Z,30.52
2022-12-03T05:12:48.841Z,36.50
2022-12-03T05:17:50.483Z,36.45
2022-12-03T05:22:52.158Z,31.02
2022-12-03T05:27:53.824Z,34.42
2022-12-03T05:32:55.911Z,31.02
2022-12-03T05:37:57.528Z,29.88
2022-12-03T05:43:01.275Z,32.53
2022-12-03T05:48:04.359Z,30.75
2022-12-03T05:53:06.290Z,33.53
2022-12-03T05:58:08.206Z,28.45
2022-12-03T06:03:10.479Z,29.35
2022-12-03T06:08:12.612Z,32.13
2022-12-03T06:13:14.300Z,33.45
2022-12-03T06:18:15.940Z,28.48
2022-12-03T06:23:17.590Z,37.95
2022-12-03T06:28:19.219Z,34.13
2022-12-03T06:33:20.879Z,32.05
2022-12-03T06:38:22.556Z,31.58
2022-12-03T06:43:24.341Z,33.35
2022-12-03T06:48:26.003Z,31.55
2022-12-03T06:53:27.609Z,31.55
2022-12-03T06:58:29.242Z,29.88
2022-12-03T07:03:30.853Z,29.83
2022-12-03T07:08:32.632Z,29.27
2022-12-03T07:13:34.267Z,32.45
2022-12-03T07:18:35.975Z,39.33
2022-12-03T07:23:37.601Z,26.17
2022-12-03T07:28:39.238Z,30.48
2022-12-03T07:33:40.944Z,29.85
2022-12-03T07:38:42.615Z,33.72
2022-12-03T07:43:45.253Z,30.38
2022-12-03T07:48:46.932Z,29.38
2022-12-03T07:53:48.598Z,29.55
2022-12-03T07:58:50.395Z,34.80
2022-12-03T08:03:52.218Z,26.42
2022-12-03T08:08:54.228Z,32.35
2022-12-03T08:13:57.502Z,29.92
2022-12-03T08:18:59.195Z,26.00
2022-12-03T08:24:11.923Z,28.20
2022-12-03T08:29:16.771Z,32.42
2022-12-03T08:34:23.578Z,32.05
2022-12-03T08:39:41.527Z,28.00
2022-12-03T08:44:43.184Z,32.63
2022-12-03T08:50:17.409Z,30.65
2022-12-03T08:55:36.556Z,27.77
2022-12-03T09:00:38.729Z,32.05
2022-12-03T09:05:40.607Z,34.85
2022-12-03T09:10:42.555Z,32.75
2022-12-03T09:15:44.165Z,35.25
2022-12-03T09:20:45.793Z,33.47
2022-12-03T09:25:47.419Z,31.48
2022-12-03T09:30:49.068Z,38.58
2022-12-03T09:35:50.766Z,32.83
2022-12-03T09:40:52.923Z,32.65
2022-12-03T09:45:54.617Z,38.40
2022-12-03T09:50:56.338Z,33.85
2022-12-03T09:55:59.510Z,38.40
2022-12-03T10:01:01.323Z,36.03
2022-12-03T10:06:02.968Z,40.75
2022-12-03T10:11:04.900Z,40.58
2022-12-03T10:16:11.163Z,43.92
2022-12-03T10:21:19.087Z,34.80
2022-12-03T10:26:37.657Z,34.90
2022-12-03T10:31:39.562Z,36.45
2022-12-03T10:36:41.359Z,36.35
2022-12-03T10:41:44.377Z,42.28
2022-12-03T10:46:47.367Z,38.50
2022-12-03T10:51:49.223Z,42.08
2022-12-03T10:56:52.124Z,36.35
2022-12-03T11:01:54.024Z,38.05
2022-12-03T11:06:55.802Z,44.10
2022-12-03T11:12:06.819Z,38.70
2022-12-03T11:17:08.771Z,39.47
2022-12-03T11:22:10.491Z,39.08
2022-12-03T11:27:12.195Z,42.55
2022-12-03T11:32:38.563Z,43.85
2022-12-03T11:37:40.369Z,41.60
2022-12-03T11:42:42.125Z,43.08
2022-12-03T11:48:01.578Z,41.67
2022-12-03T11:53:13.450Z,35.88
2022-12-03T11:58:16.717Z,42.28
2022-12-03T12:03:33.411Z,41.95
2022-12-03T12:08:38.383Z,40.33
2022-12-03T12:13:40.149Z,47.45
2022-12-03T12:18:55.178Z,37.30
2022-12-03T12:23:57.555Z,40.33
2022-12-03T12:28:59.268Z,46.85
2022-12-03T12:34:01.574Z,42.38
2022-12-03T12:39:10.567Z,39.60
2022-12-03T12:44:15.428Z,44.33
2022-12-03T12:49:20.856Z,39.88
2022-12-03T12:54:22.495Z,41.47
2022-12-03T12:59:25.820Z,41.22
2022-12-03T13:04:27.563Z,41.35
2022-12-03T13:09:29.862Z,47.38
2022-12-03T13:14:35.041Z,40.28
2022-12-03T13:20:02.051Z,45.67
2022-12-03T13:25:50.580Z,41.45
2022-12-03T13:30:48.119Z,45.63
2022-12-03T13:35:52.597Z,41.50
2022-12-03T13:41:01.942Z,37.72
2022-12-03T13:46:03.624Z,46.13
2022-12-03T13:51:23.889Z,44.58
2022-12-03T13:56:29.723Z,40.28
2022-12-03T14:01:31.515Z,47.92
2022-12-03T14:06:33.711Z,45.17
2022-12-03T14:11:54.096Z,45.70
2022-12-03T14:16:59.922Z,42.65
2022-12-03T14:22:02.503Z,42.30
2022-12-03T14:27:04.226Z,42.50
2022-12-03T14:32:06.155Z,43.25
2022-12-03T14:37:07.827Z,43.78
2022-12-03T14:42:16.658Z,45.28
2022-12-03T14:47:22.332Z,42.60
2022-12-03T14:52:23.971Z,37.33
2022-12-03T14:57:25.769Z,36.58
2022-12-03T15:02:27.581Z,35.05
2022-12-03T15:07:29.249Z,35.22
2022-12-03T15:12:31.573Z,33.83
2022-12-03T15:17:33.528Z,38.03
2022-12-03T15:22:35.193Z,31.48
2022-12-03T15:27:36.814Z,36.17
2022-12-03T15:32:38.396Z,36.10
2022-12-03T15:37:40.324Z,41.70
2022-12-03T15:42:41.958Z,43.75
2022-12-03T15:47:43.875Z,41.88
2022-12-03T15:52:45.556Z,46.72
2022-12-03T15:57:47.555Z,37.17
2022-12-03T16:02:52.721Z,37.92
2022-12-03T16:07:54.727Z,43.90
2022-12-03T16:12:56.390Z,41.92
2022-12-03T16:17:58.730Z,44.90
2022-12-03T16:23:00.360Z,42.35
2022-12-03T16:28:02.000Z,42.25
2022-12-03T16:33:03.646Z,43.55
2022-12-03T16:38:05.274Z,39.53
2022-12-03T16:43:08.515Z,38.42
2022-12-03T16:48:10.154Z,42.70
2022-12-03T16:53:12.138Z,38.53
2022-12-03T16:58:13.895Z,37.47
2022-12-03T17:03:16.141Z,44.38
2022-12-03T17:08:17.902Z,41.25
2022-12-03T17:13:19.721Z,38.40
2022-12-03T17:18:22.918Z,41.03
2022-12-03T17:23:24.538Z,42.45
2022-12-03T17:28:26.143Z,50.00
2022-12-03T17:33:27.759Z,40.72
2022-12-03T17:38:32.752Z,45.05
2022-12-03T17:43:37.257Z,41.13
2022-12-03T17:48:40.524Z,45.03
2022-12-03T17:53:42.193Z,44.33
2022-12-03T17:58:43.852Z,41.63
2022-12-03T18:03:45.536Z,46.38
2022-12-03T18:08:47.343Z,41.80
2022-12-03T18:13:49.038Z,48.58
2022-12-03T18:18:56.247Z,49.75
2022-12-03T18:24:00.040Z,41.85
2022-12-03T18:29:01.746Z,43.45
2022-12-03T18:34:03.376Z,44.60
2022-12-03T18:39:10.317Z,43.80
2022-12-03T18:44:12.276Z,49.92
2022-12-03T18:49:14.286Z,41.58
2022-12-03T18:54:15.937Z,44.78
2022-12-03T18:59:17.578Z,45.53
2022-12-03T19:04:19.330Z,43.72
2022-12-03T19:09:21.222Z,44.45
2022-12-03T19:14:22.930Z,44.53
2022-12-03T19:19:27.264Z,48.72
2022-12-03T19:24:29.522Z,47.25
2022-12-03T19:29:31.138Z,45.58
2022-12-03T19:34:32.953Z,45.75
2022-12-03T19:39:34.684Z,43.85
2022-12-03T19:44:36.340Z,40.65
2022-12-03T19:49:37.946Z,43.80
2022-12-03T19:54:39.617Z,39.65
2022-12-03T19:59:42.480Z,41.38
2022-12-03T20:04:44.154Z,42.78
2022-12-03T20:09:46.076Z,37.92
2022-12-03T20:14:48.585Z,41.75
2022-12-03T20:19:51.350Z,43.10
2022-12-03T20:24:53.096Z,49.17
2022-12-03T20:29:54.998Z,39.67
2022-12-03T20:34:56.792Z,43.38
2022-12-03T20:39:58.521Z,37.50
2022-12-03T20:45:00.113Z,44.45
2022-12-03T20:50:01.757Z,45.50
2022-12-03T20:55:03.821Z,41.08
2022-12-03T21:00:06.104Z,46.80
2022-12-03T21:05:08.224Z,42.72
2022-12-03T21:10:32.859Z,45.30
2022-12-03T21:15:34.497Z,46.05
2022-12-03T21:20:43.401Z,51.05
2022-12-03T21:25:45.027Z,47.50
2022-12-03T21:30:46.735Z,51.08
2022-12-03T21:35:48.367Z,48.78
2022-12-03T21:40:50.052Z,53.95
2022-12-03T21:45:52.045Z,48.47
2022-12-03T21:51:07.902Z,49.13
2022-12-03T21:56:12.797Z,51.72
2022-12-03T22:01:17.766Z,49.85
2022-12-03T22:06:19.792Z,52.25
2022-12-03T22:11:23.334Z,51.13
2022-12-03T22:16:25.029Z,49.40
2022-12-03T22:21:27.511Z,59.20
2022-12-03T22:26:29.123Z,56.38
2022-12-03T22:31:30.799Z,57.25
2022-12-03T22:36:32.501Z,59.83
2022-12-03T22:41:34.125Z,53.80
2022-12-03T22:46:35.888Z,47.85
2022-12-03T22:51:37.657Z,47.42
2022-12-03T22:56:39.639Z,46.65
2022-12-03T23:01:41.789Z,51.50
2022-12-03T23:06:43.672Z,47.00
2022-12-03T23:11:45.496Z,54.83
2022-12-03T23:16:47.421Z,44.65
2022-12-03T23:21:49.068Z,48.67
2022-12-03T23:26:53.540Z,48.63
2022-12-03T23:31:56.980Z,54.92
2022-12-03T23:36:58.705Z,56.20
2022-12-03T23:42:00.385Z,51.58
2022-12-03T23:47:02.314Z,45.40
2022-12-03T23:52:12.012Z,47.08
2022-12-03T23:57:16.306Z,53.05
